createdAt,value
2023-05-19T00:02:06.503Z,101182.81
2023-05-19T00:04:34.597Z,101176.31
2023-05-19T00:07:03.705Z,101180.06
2023-05-19T00:09:31.731Z,101174.22
2023-05-19T00:12:00.069Z,101183.56
2023-05-19T00:14:27.976Z,101180.97
2023-05-19T00:16:57.807Z,101180.13
2023-05-19T00:19:25.579Z,101183.25
2023-05-19T00:21:53.291Z,101181.72
2023-05-19T00:24:20.629Z,101180.22
2023-05-19T00:26:48.506Z,101176.69
2023-05-19T00:29:15.803Z,101180.72
2023-05-19T00:31:43.546Z,101182.56
2023-05-19T00:34:12.406Z,101188.78
2023-05-19T00:36:40.449Z,101183.34
2023-05-19T00:39:07.821Z,101181.06
2023-05-19T00:41:35.637Z,101178.28
2023-05-19T00:44:06.811Z,101185.25
2023-05-19T00:46:34.700Z,101189.94
2023-05-19T00:49:02.536Z,101181.19
2023-05-19T00:51:31.971Z,101191.16
2023-05-19T00:53:59.604Z,101187.09
2023-05-19T00:56:27.413Z,101188.06
2023-05-19T00:58:55.331Z,101185.50
2023-05-19T01:01:23.582Z,101184.78
2023-05-19T01:03:51.350Z,101192.84
2023-05-19T01:06:19.476Z,101187.66
2023-05-19T01:08:48.455Z,101188.91
2023-05-19T01:11:16.381Z,101190.31
2023-05-19T01:13:44.208Z,101189.47
2023-05-19T01:16:19.047Z,101190.16
2023-05-19T01:18:54.528Z,101189.53
2023-05-19T01:21:38.814Z,101190.19
2023-05-19T01:24:23.376Z,101195.00
2023-05-19T01:27:38.883Z,101199.19
2023-05-19T01:30:37.082Z,101193.41
2023-05-19T01:33:08.465Z,101193.56
2023-05-19T01:35:37.794Z,101192.00
2023-05-19T01:38:09.416Z,101187.91
2023-05-19T01:40:38.631Z,101189.13
2023-05-19T01:43:09.456Z,101182.44
2023-05-19T01:45:40.071Z,101182.16
2023-05-19T01:48:10.832Z,101193.16
2023-05-19T01:50:39.552Z,101194.16
2023-05-19T01:53:07.575Z,101191.66
2023-05-19T01:55:35.902Z,101195.00
2023-05-19T01:58:14.071Z,101187.13
2023-05-19T02:00:53.152Z,101192.50
2023-05-19T02:03:35.421Z,101186.31
2023-05-19T02:06:18.463Z,101183.31
2023-05-19T02:08:57.274Z,101187.00
2023-05-19T02:11:35.788Z,101186.78
2023-05-19T02:14:09.269Z,101193.56
2023-05-19T02:16:40.124Z,101191.69
2023-05-19T02:19:20.660Z,101191.56
2023-05-19T02:21:48.192Z,101186.03
2023-05-19T02:24:15.980Z,101189.31
2023-05-19T02:26:43.364Z,101190.50
2023-05-19T02:29:11.115Z,101189.34
2023-05-19T02:31:40.030Z,101191.09
2023-05-19T02:34:07.933Z,101179.38
2023-05-19T02:36:35.813Z,101177.25
2023-05-19T02:39:03.671Z,101175.41
2023-05-19T02:41:31.134Z,101172.72
2023-05-19T02:43:59.101Z,101177.94
2023-05-19T02:46:26.541Z,101179.94
2023-05-19T02:48:55.557Z,101177.69
2023-05-19T02:51:23.046Z,101172.25
2023-05-19T02:53:51.005Z,101184.75
2023-05-19T02:56:18.468Z,101188.47
2023-05-19T02:58:46.312Z,101182.56
2023-05-19T03:01:13.696Z,101181.09
2023-05-19T03:03:41.537Z,101181.59
2023-05-19T03:06:10.464Z,101177.19
2023-05-19T03:08:40.766Z,101186.66
2023-05-19T03:11:09.531Z,101175.75
2023-05-19T03:13:37.297Z,101177.03
2023-05-19T03:16:05.006Z,101179.81
2023-05-19T03:18:32.854Z,101184.94
2023-05-19T03:21:00.235Z,101180.97
2023-05-19T03:23:29.427Z,101179.97
2023-05-19T03:25:56.652Z,101178.63
2023-05-19T03:28:24.453Z,101174.22
2023-05-19T03:30:51.735Z,101169.84
2023-05-19T03:33:19.532Z,101165.16
2023-05-19T03:35:47.267Z,101166.09
2023-05-19T03:38:15.179Z,101172.91
2023-05-19T03:40:44.060Z,101169.28
2023-05-19T03:43:11.840Z,101173.69
2023-05-19T03:45:39.377Z,101180.31
2023-05-19T03:48:07.367Z,101176.69
2023-05-19T03:50:34.763Z,101174.38
2023-05-19T03:53:02.829Z,101177.44
2023-05-19T03:55:30.404Z,101171.31
2023-05-19T03:57:59.649Z,101172.88
2023-05-19T04:00:26.951Z,101169.13
2023-05-19T04:02:54.788Z,101178.66
2023-05-19T04:05:22.348Z,101179.28
2023-05-19T04:07:50.296Z,101181.09
2023-05-19T04:10:17.651Z,101176.97
2023-05-19T04:12:45.819Z,101174.28
2023-05-19T04:15:14.768Z,101178.59
2023-05-19T04:17:43.199Z,101171.31
2023-05-19T04:20:12.021Z,101172.75
2023-05-19T04:22:39.780Z,101176.28
2023-05-19T04:25:07.924Z,101176.88
2023-05-19T04:27:35.899Z,101176.47
2023-05-19T04:30:03.482Z,101174.03
2023-05-19T04:32:32.789Z,101175.47
2023-05-19T04:35:00.179Z,101174.72
2023-05-19T04:37:28.087Z,101175.25
2023-05-19T04:39:56.017Z,101170.56
2023-05-19T04:42:23.829Z,101177.25
2023-05-19T04:44:51.202Z,101177.09
2023-05-19T04:47:19.864Z,101181.47
2023-05-19T04:49:48.733Z,101181.75
2023-05-19T04:52:16.501Z,101179.34
2023-05-19T04:54:43.871Z,101183.50
2023-05-19T04:57:11.483Z,101189.72
2023-05-19T04:59:38.857Z,101193.34
2023-05-19T05:02:07.075Z,101188.16
2023-05-19T05:04:34.604Z,101186.03
2023-05-19T05:07:03.931Z,101188.88
2023-05-19T05:09:31.193Z,101190.09
2023-05-19T05:11:59.509Z,101188.31
2023-05-19T05:14:27.497Z,101195.81
2023-05-19T05:16:55.832Z,101193.03
2023-05-19T05:19:23.892Z,101184.78
2023-05-19T05:21:52.465Z,101194.03
2023-05-19T05:24:22.057Z,101202.97
2023-05-19T05:26:50.335Z,101196.47
2023-05-19T05:29:17.738Z,101195.34
2023-05-19T05:31:45.572Z,101196.13
2023-05-19T05:34:13.346Z,101189.28
2023-05-19T05:36:41.057Z,101193.25
2023-05-19T05:39:08.548Z,101190.81
2023-05-19T05:41:37.852Z,101189.16
2023-05-19T05:44:05.602Z,101195.72
2023-05-19T05:46:33.421Z,101196.56
2023-05-19T05:49:01.442Z,101196.06
2023-05-19T05:51:29.664Z,101195.91
2023-05-19T05:53:58.963Z,101200.25
2023-05-19T05:56:27.177Z,101198.41
2023-05-19T05:58:56.095Z,101196.47
2023-05-19T06:01:23.985Z,101203.25
2023-05-19T06:03:51.535Z,101206.69
2023-05-19T06:06:19.564Z,101217.41
2023-05-19T06:08:46.948Z,101204.00
2023-05-19T06:11:14.719Z,101209.19
2023-05-19T06:13:42.204Z,101214.63
2023-05-19T06:16:11.493Z,101211.38
2023-05-19T06:18:39.080Z,101212.09
2023-05-19T06:21:06.823Z,101202.84
2023-05-19T06:23:34.195Z,101211.16
2023-05-19T06:26:02.033Z,101214.44
2023-05-19T06:28:29.416Z,101212.31
2023-05-19T06:30:57.292Z,101221.00
2023-05-19T06:33:28.767Z,101218.56
2023-05-19T06:35:56.923Z,101218.72
2023-05-19T06:38:24.260Z,101212.81
2023-05-19T06:40:52.019Z,101219.16
2023-05-19T06:43:19.403Z,101211.00
2023-05-19T06:45:47.241Z,101216.97
2023-05-19T06:48:14.700Z,101219.00
2023-05-19T06:50:43.882Z,101223.16
2023-05-19T06:53:11.313Z,101223.59
2023-05-19T06:55:50.433Z,101227.06
2023-05-19T06:58:25.263Z,101228.53
2023-05-19T07:00:53.076Z,101225.50
2023-05-19T07:03:20.622Z,101234.31
2023-05-19T07:05:50.037Z,101235.16
2023-05-19T07:08:17.457Z,101231.47
2023-05-19T07:10:45.261Z,101236.06
2023-05-19T07:13:12.626Z,101237.53
2023-05-19T07:15:40.393Z,101236.44
2023-05-19T07:18:07.777Z,101230.16
2023-05-19T07:20:35.751Z,101237.06
2023-05-19T07:23:04.581Z,101237.69
2023-05-19T07:25:32.566Z,101241.63
2023-05-19T07:28:00.063Z,101235.44
2023-05-19T07:30:28.214Z,101229.28
2023-05-19T07:32:55.885Z,101236.34
2023-05-19T07:35:24.015Z,101234.47
2023-05-19T07:37:52.001Z,101233.75
2023-05-19T07:40:21.463Z,101232.22
2023-05-19T07:42:49.758Z,101225.28
2023-05-19T07:45:17.698Z,101230.75
2023-05-19T07:47:45.178Z,101228.97
2023-05-19T07:50:13.088Z,101225.28
2023-05-19T07:52:40.488Z,101229.34
2023-05-19T07:55:08.350Z,101230.16
2023-05-19T07:57:37.742Z,101228.03
2023-05-19T08:00:06.770Z,101232.13
2023-05-19T08:02:34.210Z,101231.75
2023-05-19T08:05:02.127Z,101234.03
2023-05-19T08:07:29.559Z,101239.78
2023-05-19T08:09:57.283Z,101235.94
2023-05-19T08:12:24.619Z,101236.78
2023-05-19T08:14:53.811Z,101238.25
2023-05-19T08:17:21.309Z,101235.25
2023-05-19T08:19:49.111Z,101233.91
2023-05-19T08:22:16.624Z,101229.75
2023-05-19T08:24:44.448Z,101237.91
2023-05-19T08:27:11.922Z,101229.59
2023-05-19T08:29:39.803Z,101230.00
2023-05-19T08:32:09.791Z,101230.44
2023-05-19T08:34:39.444Z,101230.22
2023-05-19T08:37:06.743Z,101239.75
2023-05-19T08:39:34.684Z,101231.00
2023-05-19T08:42:02.088Z,101239.69
2023-05-19T08:44:30.020Z,101234.84
2023-05-19T08:47:00.107Z,101232.16
2023-05-19T08:49:33.550Z,101236.38
2023-05-19T08:52:10.026Z,101232.25
2023-05-19T08:54:46.273Z,101225.41
2023-05-19T08:57:14.343Z,101233.41
2023-05-19T08:59:43.620Z,101229.63
2023-05-19T09:02:13.183Z,101227.41
2023-05-19T09:04:43.651Z,101230.31
2023-05-19T09:07:11.394Z,101230.81
2023-05-19T09:09:39.234Z,101226.50
2023-05-19T09:12:06.826Z,101221.53
2023-05-19T09:14:34.586Z,101225.63
2023-05-19T09:17:02.362Z,101221.47
2023-05-19T09:19:30.356Z,101220.09
2023-05-19T09:22:02.841Z,101211.53
2023-05-19T09:24:30.598Z,101211.13
2023-05-19T09:27:00.109Z,101213.44
2023-05-19T09:29:28.234Z,101217.06
2023-05-19T09:31:56.370Z,101212.66
2023-05-19T09:34:24.277Z,101208.03
2023-05-19T09:36:51.739Z,101209.97
2023-05-19T09:39:22.595Z,101214.28
2023-05-19T09:41:52.282Z,101216.63
2023-05-19T09:44:23.785Z,101211.13
2023-05-19T09:46:51.880Z,101208.91
2023-05-19T09:49:21.181Z,101202.41
2023-05-19T09:51:54.023Z,101203.16
2023-05-19T09:54:24.481Z,101206.28
2023-05-19T09:56:56.539Z,101193.88
2023-05-19T09:59:25.295Z,101195.94
2023-05-19T10:01:55.049Z,101185.13
2023-05-19T10:04:23.746Z,101193.94
2023-05-19T10:06:52.131Z,101190.94
2023-05-19T10:09:24.123Z,101188.56
2023-05-19T10:11:52.696Z,101176.50
2023-05-19T10:14:23.436Z,101173.66
2023-05-19T10:16:51.782Z,101177.88
2023-05-19T10:19:21.501Z,101174.19
2023-05-19T10:21:57.525Z,101176.72
2023-05-19T10:24:25.513Z,101169.31
2023-05-19T10:26:57.508Z,101175.53
2023-05-19T10:29:28.856Z,101177.38
2023-05-19T10:31:59.323Z,101186.00
2023-05-19T10:35:00.230Z,101185.66
2023-05-19T10:37:40.576Z,101182.44
2023-05-19T10:40:13.835Z,101191.94
2023-05-19T10:42:50.517Z,101184.50
2023-05-19T10:45:22.467Z,101181.28
2023-05-19T10:47:51.235Z,101175.88
2023-05-19T10:50:20.752Z,101185.16
2023-05-19T10:52:56.142Z,101191.59
2023-05-19T10:55:44.923Z,101190.84
2023-05-19T10:58:12.349Z,101191.22
2023-05-19T11:00:40.346Z,101180.41
2023-05-19T11:03:14.864Z,101180.13
2023-05-19T11:05:42.826Z,101175.72
2023-05-19T11:08:12.742Z,101177.72
2023-05-19T11:10:44.314Z,101173.00
2023-05-19T11:13:19.696Z,101173.66
2023-05-19T11:15:47.449Z,101176.66
2023-05-19T11:18:14.964Z,101169.56
2023-05-19T11:20:42.762Z,101176.66
2023-05-19T11:23:16.854Z,101178.22
2023-05-19T11:25:45.832Z,101174.34
2023-05-19T11:28:15.592Z,101182.28
2023-05-19T11:30:44.882Z,101177.88
2023-05-19T11:33:13.034Z,101180.41
2023-05-19T11:35:41.164Z,101172.66
2023-05-19T11:38:08.746Z,101165.41
2023-05-19T11:40:38.123Z,101172.84
2023-05-19T11:43:05.534Z,101173.84
2023-05-19T11:45:35.172Z,101173.34
2023-05-19T11:48:03.428Z,101168.59
2023-05-19T11:50:31.822Z,101169.44
2023-05-19T11:53:01.447Z,101165.22
2023-05-19T11:55:29.878Z,101166.03
2023-05-19T12:00:31.349Z,101171.13
2023-05-19T12:02:58.927Z,101172.66
2023-05-19T12:05:27.369Z,101168.75
2023-05-19T12:07:55.362Z,101175.34
2023-05-19T12:10:23.903Z,101176.53
2023-05-19T12:12:51.844Z,101171.97
2023-05-19T12:15:21.563Z,101167.56
2023-05-19T12:17:56.657Z,101169.63
2023-05-19T12:20:25.127Z,101172.66
2023-05-19T12:22:54.051Z,101171.81
2023-05-19T12:25:22.516Z,101171.13
2023-05-19T12:27:50.339Z,101172.16
2023-05-19T12:30:18.236Z,101175.03
2023-05-19T12:32:47.140Z,101177.38
2023-05-19T12:35:15.831Z,101185.50
2023-05-19T12:37:43.229Z,101180.28
2023-05-19T12:40:16.557Z,101178.75
2023-05-19T12:42:45.120Z,101176.06
2023-05-19T12:45:12.971Z,101182.28
2023-05-19T12:47:40.419Z,101185.31
2023-05-19T12:50:10.769Z,101188.53
2023-05-19T12:52:43.421Z,101177.38
2023-05-19T12:55:11.773Z,101191.56
2023-05-19T12:57:40.449Z,101182.97
2023-05-19T13:00:14.344Z,101185.16
2023-05-19T13:02:58.862Z,101174.34
2023-05-19T13:05:29.720Z,101179.09
2023-05-19T13:07:58.474Z,101174.34
2023-05-19T13:10:27.015Z,101173.66
2023-05-19T13:12:54.877Z,101177.25
2023-05-19T13:15:23.568Z,101176.88
2023-05-19T13:17:51.375Z,101171.50
2023-05-19T13:20:19.383Z,101178.91
2023-05-19T13:22:49.376Z,101174.69
2023-05-19T13:25:17.411Z,101180.44
2023-05-19T13:27:45.069Z,101171.97
2023-05-19T13:30:13.096Z,101175.19
2023-05-19T13:32:40.557Z,101179.28
2023-05-19T13:35:10.206Z,101176.03
2023-05-19T13:37:38.129Z,101171.31
2023-05-19T13:40:08.856Z,101172.34
2023-05-19T13:42:36.786Z,101167.59
2023-05-19T13:45:05.920Z,101182.63
2023-05-19T13:47:33.373Z,101173.16
2023-05-19T13:50:02.335Z,101169.97
2023-05-19T13:52:30.506Z,101171.31
2023-05-19T13:54:58.358Z,101174.69
2023-05-19T13:57:27.318Z,101170.63
2023-05-19T14:00:03.214Z,101172.31
2023-05-19T14:02:31.788Z,101173.84
2023-05-19T14:04:59.690Z,101166.59
2023-05-19T14:07:27.114Z,101168.63
2023-05-19T14:09:55.080Z,101165.91
2023-05-19T14:12:25.540Z,101163.72
2023-05-19T14:15:01.167Z,101170.31
2023-05-19T14:17:28.584Z,101167.44
2023-05-19T14:19:56.457Z,101169.28
2023-05-19T14:22:24.103Z,101156.44
2023-05-19T14:24:52.112Z,101162.69
2023-05-19T14:27:19.551Z,101160.19
2023-05-19T14:29:47.317Z,101154.72
2023-05-19T14:32:16.840Z,101155.94
2023-05-19T14:34:44.665Z,101149.34
2023-05-19T14:37:12.112Z,101151.34
2023-05-19T14:39:39.981Z,101146.97
2023-05-19T14:42:07.308Z,101143.22
2023-05-19T14:44:35.199Z,101150.81
2023-05-19T14:47:02.721Z,101149.25
2023-05-19T14:49:32.286Z,101148.09
2023-05-19T14:51:59.713Z,101145.03
2023-05-19T14:54:27.349Z,101145.75
2023-05-19T14:56:54.810Z,101141.59
2023-05-19T14:59:22.599Z,101144.91
2023-05-19T15:01:50.178Z,101144.38
2023-05-19T15:04:18.054Z,101142.19
2023-05-19T15:06:52.226Z,101143.03
2023-05-19T15:09:26.435Z,101139.81
2023-05-19T15:11:54.072Z,101136.38
2023-05-19T15:14:21.780Z,101135.38
2023-05-19T15:16:49.390Z,101142.31
2023-05-19T15:19:17.187Z,101136.75
2023-05-19T15:21:46.193Z,101136.88
2023-05-19T15:24:14.046Z,101137.94
2023-05-19T15:26:41.708Z,101139.31
2023-05-19T15:29:09.495Z,101142.69
2023-05-19T15:31:38.281Z,101141.47
2023-05-19T15:34:06.308Z,101137.84
2023-05-19T15:36:33.730Z,101137.72
2023-05-19T15:39:03.196Z,101126.34
2023-05-19T15:41:30.593Z,101130.44
2023-05-19T15:43:58.499Z,101130.06
2023-05-19T15:46:26.009Z,101123.34
2023-05-19T15:48:53.870Z,101129.81
2023-05-19T15:51:21.537Z,101132.53
2023-05-19T15:53:49.370Z,101136.88
2023-05-19T15:56:18.412Z,101130.13
2023-05-19T15:58:46.242Z,101131.41
2023-05-19T16:01:14.270Z,101131.88
2023-05-19T16:03:42.784Z,101127.94
2023-05-19T16:06:10.234Z,101132.19
2023-05-19T16:08:38.272Z,101131.31
2023-05-19T16:11:05.862Z,101139.88
2023-05-19T16:13:35.010Z,101140.75
2023-05-19T16:16:02.588Z,101140.00
2023-05-19T16:18:30.416Z,101138.00
2023-05-19T16:20:57.782Z,101135.97
2023-05-19T16:23:25.626Z,101133.09
2023-05-19T16:25:53.898Z,101135.13
2023-05-19T16:28:23.838Z,101134.66
2023-05-19T16:30:57.461Z,101128.38
2023-05-19T16:33:25.340Z,101124.66
2023-05-19T16:35:52.837Z,101132.22
2023-05-19T16:38:20.738Z,101130.06
2023-05-19T16:40:48.137Z,101124.81
2023-05-19T16:43:15.942Z,101125.84
2023-05-19T16:45:43.397Z,101119.94
2023-05-19T16:48:12.941Z,101124.47
2023-05-19T16:50:40.838Z,101129.88
2023-05-19T16:53:11.307Z,101133.44
2023-05-19T16:55:38.738Z,101133.09
2023-05-19T16:58:06.557Z,101126.53
2023-05-19T17:00:34.123Z,101130.03
2023-05-19T17:03:02.169Z,101130.41
2023-05-19T17:05:31.185Z,101133.78
2023-05-19T17:07:59.004Z,101128.88
2023-05-19T17:10:26.459Z,101124.00
2023-05-19T17:12:54.329Z,101135.28
2023-05-19T17:15:21.892Z,101123.28
2023-05-19T17:17:49.732Z,101131.22
2023-05-19T17:20:17.264Z,101123.47
2023-05-19T17:22:46.704Z,101128.34
2023-05-19T17:25:14.237Z,101131.84
2023-05-19T17:27:42.058Z,101133.66
2023-05-19T17:30:10.084Z,101136.44
2023-05-19T17:32:38.314Z,101131.50
2023-05-19T17:35:07.187Z,101135.72
2023-05-19T17:37:35.122Z,101146.78
2023-05-19T17:40:04.668Z,101144.91
2023-05-19T17:42:32.683Z,101134.09
2023-05-19T17:45:00.344Z,101139.78
2023-05-19T17:47:28.172Z,101142.88
2023-05-19T17:49:55.529Z,101141.97
2023-05-19T17:52:23.997Z,101154.28
2023-05-19T17:54:52.077Z,101154.63
2023-05-19T17:57:24.996Z,101153.34
2023-05-19T17:59:52.962Z,101157.91
2023-05-19T18:02:21.366Z,101152.78
2023-05-19T18:04:49.504Z,101149.59
2023-05-19T18:07:18.447Z,101149.59
2023-05-19T18:09:46.502Z,101145.34
2023-05-19T18:12:14.562Z,101133.91
2023-05-19T18:14:43.640Z,101140.25
2023-05-19T18:17:11.447Z,101135.19
2023-05-19T18:19:39.004Z,101137.22
2023-05-19T18:22:06.856Z,101137.94
2023-05-19T18:24:34.295Z,101139.97
2023-05-19T18:27:02.055Z,101135.53
2023-05-19T18:29:29.489Z,101131.81
2023-05-19T18:31:58.869Z,101144.53
2023-05-19T18:34:26.434Z,101127.53
2023-05-19T18:36:54.253Z,101135.13
2023-05-19T18:39:21.703Z,101135.31
2023-05-19T18:41:50.280Z,101140.56
2023-05-19T18:44:17.751Z,101139.53
2023-05-19T18:46:45.608Z,101141.22
2023-05-19T18:49:14.448Z,101144.78
2023-05-19T18:51:42.436Z,101146.97
2023-05-19T18:54:09.915Z,101149.16
2023-05-19T18:56:37.820Z,101157.28
2023-05-19T18:59:05.286Z,101153.50
2023-05-19T19:01:33.014Z,101149.38
2023-05-19T19:04:00.493Z,101155.56
2023-05-19T19:06:29.793Z,101158.78
2023-05-19T19:08:57.264Z,101164.34
2023-05-19T19:11:25.169Z,101158.84
2023-05-19T19:13:52.627Z,101158.53
2023-05-19T19:16:20.530Z,101168.00
2023-05-19T19:18:48.064Z,101169.78
2023-05-19T19:21:15.998Z,101168.38
2023-05-19T19:23:44.978Z,101174.06
2023-05-19T19:26:12.728Z,101176.69
2023-05-19T19:28:40.115Z,101173.13
2023-05-19T19:31:07.981Z,101180.31
2023-05-19T19:33:35.538Z,101173.78
2023-05-19T19:36:03.542Z,101176.38
2023-05-19T19:38:31.078Z,101172.66
2023-05-19T19:41:00.401Z,101169.09
2023-05-19T19:43:27.923Z,101169.28
2023-05-19T19:45:59.579Z,101174.63
2023-05-19T19:48:27.335Z,101171.44
2023-05-19T19:50:55.457Z,101172.78
2023-05-19T19:53:23.514Z,101160.78
2023-05-19T19:56:00.422Z,101165.56
2023-05-19T19:58:28.865Z,101169.47
2023-05-19T20:00:57.462Z,101171.63
2023-05-19T20:03:25.575Z,101175.75
2023-05-19T20:05:55.690Z,101174.22
2023-05-19T20:08:23.842Z,101176.13
2023-05-19T20:10:51.838Z,101182.38
2023-05-19T20:13:20.792Z,101187.78
2023-05-19T20:15:48.883Z,101179.00
2023-05-19T20:18:16.424Z,101184.78
2023-05-19T20:20:44.390Z,101175.16
2023-05-19T20:23:12.118Z,101176.00
2023-05-19T20:25:42.544Z,101174.16
2023-05-19T20:28:17.790Z,101177.19
2023-05-19T20:30:47.017Z,101174.69
2023-05-19T20:33:14.547Z,101177.56
2023-05-19T20:35:42.412Z,101180.97
2023-05-19T20:38:09.835Z,101181.09
2023-05-19T20:40:37.782Z,101188.91
2023-05-19T20:43:05.140Z,101182.66
2023-05-19T20:45:33.226Z,101178.41
2023-05-19T20:48:02.560Z,101181.44
2023-05-19T20:50:30.305Z,101170.81
2023-05-19T20:52:57.797Z,101165.72
2023-05-19T20:55:25.725Z,101165.41
2023-05-19T20:57:53.230Z,101163.53
2023-05-19T21:00:21.244Z,101167.25
2023-05-19T21:02:48.838Z,101160.31
2023-05-19T21:05:18.326Z,101164.22
2023-05-19T21:07:45.785Z,101158.81
2023-05-19T21:10:13.549Z,101159.47
2023-05-19T21:12:41.123Z,101161.16
2023-05-19T21:15:09.940Z,101155.44
2023-05-19T21:17:37.370Z,101150.53
2023-05-19T21:20:06.281Z,101157.44
2023-05-19T21:22:35.222Z,101158.81
2023-05-19T21:25:03.055Z,101158.63
2023-05-19T21:27:30.620Z,101153.94
2023-05-19T21:29:58.551Z,101160.31
2023-05-19T21:32:25.937Z,101158.97
2023-05-19T21:34:53.705Z,101161.84
2023-05-19T21:37:21.252Z,101163.88
2023-05-19T21:39:50.716Z,101160.16
2023-05-19T21:42:18.199Z,101162.19
2023-05-19T21:44:45.905Z,101161.00
2023-05-19T21:47:13.303Z,101164.19
2023-05-19T21:49:41.108Z,101161.69
2023-05-19T21:52:08.682Z,101156.94
2023-05-19T21:54:36.522Z,101162.84
2023-05-19T21:57:05.914Z,101156.09
2023-05-19T21:59:33.803Z,101158.44
2023-05-19T22:02:01.374Z,101156.94
2023-05-19T22:04:29.270Z,101155.59
2023-05-19T22:06:57.037Z,101158.81
2023-05-19T22:09:25.378Z,101161.81
2023-05-19T22:11:52.812Z,101156.41
2023-05-19T22:14:21.980Z,101154.06
2023-05-19T22:16:49.542Z,101155.41
2023-05-19T22:19:17.425Z,101157.78
2023-05-19T22:21:45.619Z,101151.00
2023-05-19T22:24:13.420Z,101151.69
2023-05-19T22:26:40.962Z,101144.75
2023-05-19T22:29:09.180Z,101144.44
2023-05-19T22:31:39.064Z,101152.72
2023-05-19T22:34:07.929Z,101149.53
2023-05-19T22:36:35.916Z,101138.19
2023-05-19T22:39:05.410Z,101135.00
2023-05-19T22:41:35.220Z,101136.50
2023-05-19T22:44:03.266Z,101132.47
2023-05-19T22:46:30.862Z,101130.44
2023-05-19T22:49:00.293Z,101136.19
2023-05-19T22:51:27.681Z,101127.53
2023-05-19T22:53:55.497Z,101134.66
2023-05-19T22:56:23.018Z,101135.31
2023-05-19T22:58:50.723Z,101132.31
2023-05-19T23:01:22.036Z,101132.47
2023-05-19T23:03:52.694Z,101136.50
2023-05-19T23:06:22.598Z,101134.63
2023-05-19T23:08:59.462Z,101135.47
2023-05-19T23:11:27.855Z,101134.13
2023-05-19T23:13:55.910Z,101119.78
2023-05-19T23:16:24.151Z,101122.97
2023-05-19T23:18:54.727Z,101125.69
2023-05-19T23:21:24.084Z,101128.38
2023-05-19T23:23:52.187Z,101129.38
2023-05-19T23:26:19.787Z,101126.69
2023-05-19T23:28:47.682Z,101130.56
2023-05-19T23:31:15.436Z,101125.66
2023-05-19T23:33:44.629Z,101122.31
2023-05-19T23:36:14.565Z,101124.66
2023-05-19T23:38:44.863Z,101117.56
2023-05-19T23:41:12.661Z,101117.91
2023-05-19T23:43:40.650Z,101124.66
2023-05-19T23:46:08.577Z,101118.25
2023-05-19T23:48:37.008Z,101112.69
2023-05-19T23:51:05.109Z,101113.84
2023-05-19T23:53:33.194Z,101112.69
2023-05-19T23:56:02.201Z,101120.44
2023-05-19T23:58:29.917Z,101116.53
